sensor_id;sensor_type;location;lat;lon;timestamp;pressure;altitude;pressure_sealevel;temperature;humidity
7532;BME280;3807;49.030;8.714;2023-05-20T00:01:31;99486.50;;;17.27;53.76
7532;BME280;3807;49.030;8.714;2023-05-20T00:03:56;99489.09;;;17.27;53.85
7532;BME280;3807;49.030;8.714;2023-05-20T00:06:22;99480.63;;;17.25;53.71
7532;BME280;3807;49.030;8.714;2023-05-20T00:08:47;99487.69;;;17.22;53.92
7532;BME280;3807;49.030;8.714;2023-05-20T00:11:12;99485.38;;;17.17;54.03
7532;BME280;3807;49.030;8.714;2023-05-20T00:13:38;99488.88;;;17.16;53.78
7532;BME280;3807;49.030;8.714;2023-05-20T00:16:04;99478.31;;;17.21;53.89
7532;BME280;3807;49.030;8.714;2023-05-20T00:18:30;99481.34;;;17.13;53.81
7532;BME280;3807;49.030;8.714;2023-05-20T00:20:56;99493.47;;;17.11;53.94
7532;BME280;3807;49.030;8.714;2023-05-20T00:23:22;99485.66;;;17.12;53.94
7532;BME280;3807;49.030;8.714;2023-05-20T00:25:48;99484.38;;;17.05;54.33
7532;BME280;3807;49.030;8.714;2023-05-20T00:28:13;99481.97;;;17.02;54.31
7532;BME280;3807;49.030;8.714;2023-05-20T00:30:39;99479.62;;;16.98;54.65
7532;BME280;3807;49.030;8.714;2023-05-20T00:33:08;99468.63;;;16.96;54.70
7532;BME280;3807;49.030;8.714;2023-05-20T00:35:33;99472.75;;;16.98;54.64
7532;BME280;3807;49.030;8.714;2023-05-20T00:37:58;99477.72;;;17.01;54.49
7532;BME280;3807;49.030;8.714;2023-05-20T00:40:24;99475.34;;;16.98;54.46
7532;BME280;3807;49.030;8.714;2023-05-20T00:42:50;99461.91;;;16.93;54.79
7532;BME280;3807;49.030;8.714;2023-05-20T00:45:16;99459.44;;;16.92;55.06
7532;BME280;3807;49.030;8.714;2023-05-20T00:47:41;99457.06;;;17.03;54.52
7532;BME280;3807;49.030;8.714;2023-05-20T00:50:08;99457.91;;;16.87;55.07
7532;BME280;3807;49.030;8.714;2023-05-20T00:52:35;99462.50;;;16.82;54.64
7532;BME280;3807;49.030;8.714;2023-05-20T00:55:01;99467.75;;;16.65;55.80
7532;BME280;3807;49.030;8.714;2023-05-20T00:57:26;99467.91;;;16.62;55.95
7532;BME280;3807;49.030;8.714;2023-05-20T00:59:52;99471.47;;;16.59;56.07
7532;BME280;3807;49.030;8.714;2023-05-20T01:02:17;99468.34;;;16.54;56.15
7532;BME280;3807;49.030;8.714;2023-05-20T01:04:43;99464.84;;;16.55;56.24
7532;BME280;3807;49.030;8.714;2023-05-20T01:07:12;99471.84;;;16.53;56.08
7532;BME280;3807;49.030;8.714;2023-05-20T01:09:39;99468.50;;;16.51;56.32
7532;BME280;3807;49.030;8.714;2023-05-20T01:12:22;99471.09;;;16.51;56.17
7532;BME280;3807;49.030;8.714;2023-05-20T01:14:55;99475.56;;;16.48;56.38
7532;BME280;3807;49.030;8.714;2023-05-20T01:17:25;99461.28;;;16.42;56.48
7532;BME280;3807;49.030;8.714;2023-05-20T01:19:53;99464.78;;;16.41;56.58
7532;BME280;3807;49.030;8.714;2023-05-20T01:22:27;99462.22;;;16.41;56.61
7532;BME280;3807;49.030;8.714;2023-05-20T01:24:53;99467.69;;;16.35;56.79
7532;BME280;3807;49.030;8.714;2023-05-20T01:27:20;99466.81;;;16.36;56.38
7532;BME280;3807;49.030;8.714;2023-05-20T01:29:47;99472.75;;;16.36;56.64
7532;BME280;3807;49.030;8.714;2023-05-20T01:32:20;99468.69;;;16.48;56.31
7532;BME280;3807;49.030;8.714;2023-05-20T01:34:49;99471.41;;;16.45;56.16
7532;BME280;3807;49.030;8.714;2023-05-20T01:37:16;99472.09;;;16.33;56.56
7532;BME280;3807;49.030;8.714;2023-05-20T01:39:42;99467.09;;;16.46;56.09
7532;BME280;3807;49.030;8.714;2023-05-20T01:42:09;99467.94;;;16.30;56.52
7532;BME280;3807;49.030;8.714;2023-05-20T01:44:34;99462.31;;;16.24;56.27
7532;BME280;3807;49.030;8.714;2023-05-20T01:47:00;99461.59;;;16.22;56.47
7532;BME280;3807;49.030;8.714;2023-05-20T01:49:26;99457.44;;;16.19;56.59
7532;BME280;3807;49.030;8.714;2023-05-20T01:51:51;99461.50;;;16.23;56.58
7532;BME280;3807;49.030;8.714;2023-05-20T01:54:16;99451.31;;;16.22;56.50
7532;BME280;3807;49.030;8.714;2023-05-20T01:56:42;99455.84;;;16.16;56.61
7532;BME280;3807;49.030;8.714;2023-05-20T01:59:07;99458.59;;;16.13;56.61
7532;BME280;3807;49.030;8.714;2023-05-20T02:01:33;99451.97;;;16.25;56.04
7532;BME280;3807;49.030;8.714;2023-05-20T02:03:58;99453.38;;;16.15;56.36
7532;BME280;3807;49.030;8.714;2023-05-20T02:06:24;99456.94;;;16.12;56.59
7532;BME280;3807;49.030;8.714;2023-05-20T02:08:49;99447.75;;;16.08;56.58
7532;BME280;3807;49.030;8.714;2023-05-20T02:11:15;99439.44;;;16.19;56.30
7532;BME280;3807;49.030;8.714;2023-05-20T02:13:40;99433.38;;;16.20;56.20
7532;BME280;3807;49.030;8.714;2023-05-20T02:16:05;99442.28;;;16.14;56.30
7532;BME280;3807;49.030;8.714;2023-05-20T02:18:31;99432.72;;;16.16;56.25
7532;BME280;3807;49.030;8.714;2023-05-20T02:21:03;99437.31;;;16.11;56.46
7532;BME280;3807;49.030;8.714;2023-05-20T02:23:30;99436.13;;;16.01;56.78
7532;BME280;3807;49.030;8.714;2023-05-20T02:25:55;99423.88;;;16.06;56.39
7532;BME280;3807;49.030;8.714;2023-05-20T02:28:21;99427.19;;;16.08;56.33
7532;BME280;3807;49.030;8.714;2023-05-20T02:30:46;99420.78;;;16.00;56.59
7532;BME280;3807;49.030;8.714;2023-05-20T02:33:11;99419.91;;;16.01;56.67
7532;BME280;3807;49.030;8.714;2023-05-20T02:35:38;99414.66;;;16.02;56.58
7532;BME280;3807;49.030;8.714;2023-05-20T02:38:04;99411.94;;;16.05;56.50
7532;BME280;3807;49.030;8.714;2023-05-20T02:40:30;99403.91;;;16.11;56.14
7532;BME280;3807;49.030;8.714;2023-05-20T02:42:55;99411.00;;;16.06;56.14
7532;BME280;3807;49.030;8.714;2023-05-20T02:45:20;99403.25;;;16.08;56.56
7532;BME280;3807;49.030;8.714;2023-05-20T02:47:46;99406.81;;;16.05;56.62
7532;BME280;3807;49.030;8.714;2023-05-20T02:50:11;99403.56;;;16.02;57.09
7532;BME280;3807;49.030;8.714;2023-05-20T02:52:36;99405.97;;;16.05;56.99
7532;BME280;3807;49.030;8.714;2023-05-20T02:55:02;99407.88;;;16.01;57.16
7532;BME280;3807;49.030;8.714;2023-05-20T02:57:27;99400.66;;;15.92;57.58
7532;BME280;3807;49.030;8.714;2023-05-20T02:59:54;99402.50;;;15.90;57.66
7532;BME280;3807;49.030;8.714;2023-05-20T03:02:20;99404.56;;;15.83;57.80
7532;BME280;3807;49.030;8.714;2023-05-20T03:04:45;99405.66;;;15.95;57.77
7532;BME280;3807;49.030;8.714;2023-05-20T03:07:11;99402.31;;;15.93;57.69
7532;BME280;3807;49.030;8.714;2023-05-20T03:09:36;99390.87;;;15.83;57.86
7532;BME280;3807;49.030;8.714;2023-05-20T03:12:02;99400.25;;;15.84;58.10
7532;BME280;3807;49.030;8.714;2023-05-20T03:14:27;99396.22;;;15.80;57.69
7532;BME280;3807;49.030;8.714;2023-05-20T03:16:53;99398.94;;;15.77;57.77
7532;BME280;3807;49.030;8.714;2023-05-20T03:19:21;99405.63;;;15.79;58.25
7532;BME280;3807;49.030;8.714;2023-05-20T03:21:47;99404.06;;;15.77;58.10
7532;BME280;3807;49.030;8.714;2023-05-20T03:24:14;99407.31;;;15.80;58.38
7532;BME280;3807;49.030;8.714;2023-05-20T03:26:40;99398.59;;;15.83;58.05
7532;BME280;3807;49.030;8.714;2023-05-20T03:29:08;99398.00;;;15.78;58.03
7532;BME280;3807;49.030;8.714;2023-05-20T03:31:34;99402.66;;;15.87;57.75
7532;BME280;3807;49.030;8.714;2023-05-20T03:33:59;99400.25;;;15.68;58.22
7532;BME280;3807;49.030;8.714;2023-05-20T03:36:25;99399.75;;;15.77;58.40
7532;BME280;3807;49.030;8.714;2023-05-20T03:38:50;99411.63;;;15.80;58.19
7532;BME280;3807;49.030;8.714;2023-05-20T03:41:15;99408.59;;;15.71;58.00
7532;BME280;3807;49.030;8.714;2023-05-20T03:43:41;99416.25;;;15.73;58.40
7532;BME280;3807;49.030;8.714;2023-05-20T03:46:06;99408.94;;;15.81;58.15
7532;BME280;3807;49.030;8.714;2023-05-20T03:48:31;99415.66;;;15.68;58.43
7532;BME280;3807;49.030;8.714;2023-05-20T03:50:57;99420.41;;;15.58;58.56
7532;BME280;3807;49.030;8.714;2023-05-20T03:53:22;99415.19;;;15.60;58.79
7532;BME280;3807;49.030;8.714;2023-05-20T03:55:48;99424.16;;;15.68;58.91
7532;BME280;3807;49.030;8.714;2023-05-20T03:58:14;99425.03;;;15.69;58.50
7532;BME280;3807;49.030;8.714;2023-05-20T04:00:40;99418.59;;;15.60;58.84
7532;BME280;3807;49.030;8.714;2023-05-20T04:03:05;99426.97;;;15.64;58.84
7532;BME280;3807;49.030;8.714;2023-05-20T04:05:31;99428.47;;;15.68;58.91
7532;BME280;3807;49.030;8.714;2023-05-20T04:07:56;99429.94;;;15.56;59.15
7532;BME280;3807;49.030;8.714;2023-05-20T04:10:22;99426.19;;;15.62;58.87
7532;BME280;3807;49.030;8.714;2023-05-20T04:12:48;99430.44;;;15.63;59.05
7532;BME280;3807;49.030;8.714;2023-05-20T04:15:13;99435.72;;;15.60;59.27
7532;BME280;3807;49.030;8.714;2023-05-20T04:17:40;99432.91;;;15.64;58.99
7532;BME280;3807;49.030;8.714;2023-05-20T04:20:06;99423.13;;;15.73;58.67
7532;BME280;3807;49.030;8.714;2023-05-20T04:22:32;99425.91;;;15.68;58.73
7532;BME280;3807;49.030;8.714;2023-05-20T04:24:58;99423.06;;;15.57;59.19
7532;BME280;3807;49.030;8.714;2023-05-20T04:27:24;99424.66;;;15.59;58.91
7532;BME280;3807;49.030;8.714;2023-05-20T04:29:50;99422.28;;;15.72;58.61
7532;BME280;3807;49.030;8.714;2023-05-20T04:32:17;99432.38;;;15.75;58.78
7532;BME280;3807;49.030;8.714;2023-05-20T04:34:43;99422.88;;;15.77;58.51
7532;BME280;3807;49.030;8.714;2023-05-20T04:37:09;99427.84;;;15.80;58.62
7532;BME280;3807;49.030;8.714;2023-05-20T04:39:35;99427.19;;;15.77;58.81
7532;BME280;3807;49.030;8.714;2023-05-20T04:42:01;99422.13;;;15.75;58.67
7532;BME280;3807;49.030;8.714;2023-05-20T04:44:27;99422.53;;;15.67;58.58
7532;BME280;3807;49.030;8.714;2023-05-20T04:46:52;99422.53;;;15.67;58.89
7532;BME280;3807;49.030;8.714;2023-05-20T04:49:17;99418.97;;;15.70;58.83
7532;BME280;3807;49.030;8.714;2023-05-20T04:51:43;99419.63;;;15.74;58.75
7532;BME280;3807;49.030;8.714;2023-05-20T04:54:08;99418.69;;;15.59;59.01
7532;BME280;3807;49.030;8.714;2023-05-20T04:56:34;99417.22;;;15.70;58.68
7532;BME280;3807;49.030;8.714;2023-05-20T04:59:00;99411.63;;;15.80;58.41
7532;BME280;3807;49.030;8.714;2023-05-20T05:01:25;99405.31;;;15.69;58.54
7532;BME280;3807;49.030;8.714;2023-05-20T05:03:51;99414.00;;;15.67;58.63
7532;BME280;3807;49.030;8.714;2023-05-20T05:06:16;99407.37;;;15.79;58.11
7532;BME280;3807;49.030;8.714;2023-05-20T05:08:42;99403.31;;;15.75;58.40
7532;BME280;3807;49.030;8.714;2023-05-20T05:11:07;99400.91;;;15.71;58.54
7532;BME280;3807;49.030;8.714;2023-05-20T05:13:32;99399.81;;;15.76;58.59
7532;BME280;3807;49.030;8.714;2023-05-20T05:15:59;99395.78;;;15.71;58.72
7532;BME280;3807;49.030;8.714;2023-05-20T05:18:24;99395.88;;;15.70;58.78
7532;BME280;3807;49.030;8.714;2023-05-20T05:20:57;99399.25;;;15.70;58.96
7532;BME280;3807;49.030;8.714;2023-05-20T05:23:23;99389.91;;;15.69;58.88
7532;BME280;3807;49.030;8.714;2023-05-20T05:25:51;99389.91;;;15.85;58.72
7532;BME280;3807;49.030;8.714;2023-05-20T05:28:17;99382.78;;;15.90;58.29
7532;BME280;3807;49.030;8.714;2023-05-20T05:30:42;99375.66;;;15.80;58.49
7532;BME280;3807;49.030;8.714;2023-05-20T05:33:07;99384.09;;;15.98;57.93
7532;BME280;3807;49.030;8.714;2023-05-20T05:35:33;99380.53;;;15.84;59.04
7532;BME280;3807;49.030;8.714;2023-05-20T05:37:58;99380.81;;;15.80;59.68
7532;BME280;3807;49.030;8.714;2023-05-20T05:40:23;99382.75;;;16.06;58.24
7532;BME280;3807;49.030;8.714;2023-05-20T05:42:49;99385.25;;;15.92;58.54
7532;BME280;3807;49.030;8.714;2023-05-20T05:45:14;99389.91;;;16.01;58.70
7532;BME280;3807;49.030;8.714;2023-05-20T05:47:39;99383.41;;;16.10;57.97
7532;BME280;3807;49.030;8.714;2023-05-20T05:50:05;99368.50;;;16.16;57.85
7532;BME280;3807;49.030;8.714;2023-05-20T05:52:30;99383.09;;;16.00;59.91
7532;BME280;3807;49.030;8.714;2023-05-20T05:54:56;99377.13;;;16.15;57.82
7532;BME280;3807;49.030;8.714;2023-05-20T05:57:21;99385.97;;;16.26;59.09
7532;BME280;3807;49.030;8.714;2023-05-20T05:59:46;99388.00;;;16.05;59.17
7532;BME280;3807;49.030;8.714;2023-05-20T06:02:12;99375.37;;;16.16;58.93
7532;BME280;3807;49.030;8.714;2023-05-20T06:04:38;99372.59;;;16.35;58.09
7532;BME280;3807;49.030;8.714;2023-05-20T06:07:04;99377.09;;;16.31;57.77
7532;BME280;3807;49.030;8.714;2023-05-20T06:09:29;99371.44;;;16.25;58.49
7532;BME280;3807;49.030;8.714;2023-05-20T06:11:54;99367.56;;;16.33;57.83
7532;BME280;3807;49.030;8.714;2023-05-20T06:14:20;99378.69;;;16.18;58.87
7532;BME280;3807;49.030;8.714;2023-05-20T06:16:46;99373.44;;;16.35;57.87
7532;BME280;3807;49.030;8.714;2023-05-20T06:19:11;99377.44;;;16.25;59.44
7532;BME280;3807;49.030;8.714;2023-05-20T06:21:37;99379.84;;;16.58;58.76
7532;BME280;3807;49.030;8.714;2023-05-20T06:24:03;99371.81;;;16.49;58.28
7532;BME280;3807;49.030;8.714;2023-05-20T06:26:28;99372.31;;;16.70;57.61
7532;BME280;3807;49.030;8.714;2023-05-20T06:28:54;99360.31;;;16.70;58.42
7532;BME280;3807;49.030;8.714;2023-05-20T06:31:19;99352.97;;;16.64;58.67
7532;BME280;3807;49.030;8.714;2023-05-20T06:33:44;99366.28;;;16.71;58.99
7532;BME280;3807;49.030;8.714;2023-05-20T06:36:10;99354.06;;;16.60;59.66
7532;BME280;3807;49.030;8.714;2023-05-20T06:38:36;99355.69;;;16.61;59.92
7532;BME280;3807;49.030;8.714;2023-05-20T06:41:01;99363.06;;;16.67;59.64
7532;BME280;3807;49.030;8.714;2023-05-20T06:43:26;99354.25;;;16.71;60.23
7532;BME280;3807;49.030;8.714;2023-05-20T06:45:52;99360.53;;;16.51;61.07
7532;BME280;3807;49.030;8.714;2023-05-20T06:48:18;99354.28;;;16.55;61.33
7532;BME280;3807;49.030;8.714;2023-05-20T06:50:44;99355.75;;;16.75;61.51
7532;BME280;3807;49.030;8.714;2023-05-20T06:53:09;99352.66;;;16.99;61.29
7532;BME280;3807;49.030;8.714;2023-05-20T06:55:36;99350.28;;;16.96;60.13
7532;BME280;3807;49.030;8.714;2023-05-20T06:58:02;99337.31;;;16.83;61.17
7532;BME280;3807;49.030;8.714;2023-05-20T07:00:27;99343.38;;;16.96;60.75
7532;BME280;3807;49.030;8.714;2023-05-20T07:02:53;99351.28;;;16.93;60.86
7532;BME280;3807;49.030;8.714;2023-05-20T07:05:18;99344.78;;;17.02;61.54
7532;BME280;3807;49.030;8.714;2023-05-20T07:07:43;99348.34;;;16.99;60.95
7532;BME280;3807;49.030;8.714;2023-05-20T07:10:09;99341.81;;;17.08;60.99
7532;BME280;3807;49.030;8.714;2023-05-20T07:12:35;99340.06;;;17.08;61.23
7532;BME280;3807;49.030;8.714;2023-05-20T07:15:00;99340.34;;;16.89;62.13
7532;BME280;3807;49.030;8.714;2023-05-20T07:17:26;99334.66;;;17.13;61.10
7532;BME280;3807;49.030;8.714;2023-05-20T07:19:53;99329.38;;;17.29;60.85
7532;BME280;3807;49.030;8.714;2023-05-20T07:22:19;99327.75;;;17.28;60.55
7532;BME280;3807;49.030;8.714;2023-05-20T07:24:45;99332.25;;;17.24;60.95
7532;BME280;3807;49.030;8.714;2023-05-20T07:27:10;99327.91;;;17.39;60.33
7532;BME280;3807;49.030;8.714;2023-05-20T07:29:36;99327.81;;;17.55;60.82
7532;BME280;3807;49.030;8.714;2023-05-20T07:32:02;99319.34;;;17.53;61.08
7532;BME280;3807;49.030;8.714;2023-05-20T07:34:28;99320.16;;;17.53;60.89
7532;BME280;3807;49.030;8.714;2023-05-20T07:36:53;99314.28;;;17.51;60.84
7532;BME280;3807;49.030;8.714;2023-05-20T07:39:19;99315.94;;;17.52;60.76
7532;BME280;3807;49.030;8.714;2023-05-20T07:41:44;99320.09;;;17.55;60.84
7532;BME280;3807;49.030;8.714;2023-05-20T07:44:10;99311.03;;;17.76;59.98
7532;BME280;3807;49.030;8.714;2023-05-20T07:46:37;99315.41;;;17.74;60.36
7532;BME280;3807;49.030;8.714;2023-05-20T07:49:03;99314.25;;;17.80;60.61
7532;BME280;3807;49.030;8.714;2023-05-20T07:51:28;99312.59;;;17.79;59.99
7532;BME280;3807;49.030;8.714;2023-05-20T07:53:54;99305.38;;;17.84;59.92
7532;BME280;3807;49.030;8.714;2023-05-20T07:56:19;99315.19;;;17.92;59.82
7532;BME280;3807;49.030;8.714;2023-05-20T07:58:51;99306.06;;;18.00;59.82
7532;BME280;3807;49.030;8.714;2023-05-20T08:01:17;99300.97;;;18.13;59.33
7532;BME280;3807;49.030;8.714;2023-05-20T08:03:43;99308.59;;;18.15;59.78
7532;BME280;3807;49.030;8.714;2023-05-20T08:06:08;99313.94;;;18.12;59.95
7532;BME280;3807;49.030;8.714;2023-05-20T08:08:33;99308.88;;;18.10;59.53
7532;BME280;3807;49.030;8.714;2023-05-20T08:11:00;99304.06;;;18.18;59.42
7532;BME280;3807;49.030;8.714;2023-05-20T08:13:25;99306.94;;;18.14;59.82
7532;BME280;3807;49.030;8.714;2023-05-20T08:15:54;99303.97;;;18.32;59.16
7532;BME280;3807;49.030;8.714;2023-05-20T08:18:19;99297.81;;;18.35;59.80
7532;BME280;3807;49.030;8.714;2023-05-20T08:20:45;99288.50;;;18.32;59.67
7532;BME280;3807;49.030;8.714;2023-05-20T08:23:10;99294.88;;;18.27;59.44
7532;BME280;3807;49.030;8.714;2023-05-20T08:25:35;99295.84;;;18.39;59.86
7532;BME280;3807;49.030;8.714;2023-05-20T08:28:02;99284.63;;;18.52;59.06
7532;BME280;3807;49.030;8.714;2023-05-20T08:30:29;99285.44;;;18.66;59.43
7532;BME280;3807;49.030;8.714;2023-05-20T08:32:55;99288.34;;;18.74;58.95
7532;BME280;3807;49.030;8.714;2023-05-20T08:35:21;99281.41;;;18.49;59.31
7532;BME280;3807;49.030;8.714;2023-05-20T08:37:46;99287.41;;;18.75;58.60
7532;BME280;3807;49.030;8.714;2023-05-20T08:40:12;99282.63;;;18.69;59.31
7532;BME280;3807;49.030;8.714;2023-05-20T08:42:42;99285.03;;;18.97;58.45
7532;BME280;3807;49.030;8.714;2023-05-20T08:45:10;99275.41;;;18.99;58.52
7532;BME280;3807;49.030;8.714;2023-05-20T08:47:38;99281.41;;;19.00;58.27
7532;BME280;3807;49.030;8.714;2023-05-20T08:50:05;99275.94;;;19.04;58.33
7532;BME280;3807;49.030;8.714;2023-05-20T08:52:33;99278.31;;;18.95;58.50
7532;BME280;3807;49.030;8.714;2023-05-20T08:54:59;99280.38;;;19.15;57.78
7532;BME280;3807;49.030;8.714;2023-05-20T08:57:25;99273.44;;;19.16;58.15
7532;BME280;3807;49.030;8.714;2023-05-20T08:59:52;99285.94;;;19.22;58.27
7532;BME280;3807;49.030;8.714;2023-05-20T09:02:17;99294.91;;;19.29;57.91
7532;BME280;3807;49.030;8.714;2023-05-20T09:04:42;99291.50;;;19.28;57.95
7532;BME280;3807;49.030;8.714;2023-05-20T09:07:08;99292.16;;;19.43;57.47
7532;BME280;3807;49.030;8.714;2023-05-20T09:09:33;99284.81;;;19.50;57.59
7532;BME280;3807;49.030;8.714;2023-05-20T09:12:01;99282.50;;;19.58;57.29
7532;BME280;3807;49.030;8.714;2023-05-20T09:14:28;99277.53;;;19.55;57.83
7532;BME280;3807;49.030;8.714;2023-05-20T09:16:54;99277.75;;;19.65;57.07
7532;BME280;3807;49.030;8.714;2023-05-20T09:19:21;99283.41;;;19.70;56.95
7532;BME280;3807;49.030;8.714;2023-05-20T09:21:46;99277.16;;;19.85;56.88
7532;BME280;3807;49.030;8.714;2023-05-20T09:24:12;99277.03;;;19.87;56.78
7532;BME280;3807;49.030;8.714;2023-05-20T09:26:37;99282.94;;;20.00;56.30
7532;BME280;3807;49.030;8.714;2023-05-20T09:29:03;99282.94;;;20.00;56.46
7532;BME280;3807;49.030;8.714;2023-05-20T09:31:32;99280.88;;;20.05;56.31
7532;BME280;3807;49.030;8.714;2023-05-20T09:34:00;99282.16;;;20.11;56.15
7532;BME280;3807;49.030;8.714;2023-05-20T09:36:31;99286.63;;;20.09;56.20
7532;BME280;3807;49.030;8.714;2023-05-20T09:39:00;99286.22;;;20.26;55.58
7532;BME280;3807;49.030;8.714;2023-05-20T09:41:37;99273.97;;;20.28;55.82
7532;BME280;3807;49.030;8.714;2023-05-20T09:44:03;99280.34;;;20.46;55.66
7532;BME280;3807;49.030;8.714;2023-05-20T09:46:31;99267.91;;;20.40;55.25
7532;BME280;3807;49.030;8.714;2023-05-20T09:48:58;99272.72;;;20.34;56.13
7532;BME280;3807;49.030;8.714;2023-05-20T09:51:25;99270.53;;;20.52;55.52
7532;BME280;3807;49.030;8.714;2023-05-20T09:53:50;99269.25;;;20.57;54.98
7532;BME280;3807;49.030;8.714;2023-05-20T09:56:19;99260.44;;;20.82;54.89
7532;BME280;3807;49.030;8.714;2023-05-20T09:58:46;99268.91;;;20.84;54.83
7532;BME280;3807;49.030;8.714;2023-05-20T10:01:13;99259.25;;;20.98;54.80
7532;BME280;3807;49.030;8.714;2023-05-20T10:03:39;99259.38;;;20.96;54.62
7532;BME280;3807;49.030;8.714;2023-05-20T10:09:28;99257.91;;;21.26;53.81
7532;BME280;3807;49.030;8.714;2023-05-20T10:14:59;99242.16;;;21.17;53.85
7532;BME280;3807;49.030;8.714;2023-05-20T10:19:59;99246.13;;;21.44;53.27
7532;BME280;3807;49.030;8.714;2023-05-20T10:22:26;99237.97;;;21.60;52.33
7532;BME280;3807;49.030;8.714;2023-05-20T10:25:02;99239.31;;;21.43;52.86
7532;BME280;3807;49.030;8.714;2023-05-20T10:27:41;99236.59;;;21.45;53.32
7532;BME280;3807;49.030;8.714;2023-05-20T10:30:14;99234.13;;;21.75;52.33
7532;BME280;3807;49.030;8.714;2023-05-20T10:32:48;99235.00;;;21.85;52.03
7532;BME280;3807;49.030;8.714;2023-05-20T10:35:20;99226.91;;;21.79;52.43
7532;BME280;3807;49.030;8.714;2023-05-20T10:37:46;99226.09;;;21.99;51.93
7532;BME280;3807;49.030;8.714;2023-05-20T10:40:13;99219.84;;;22.02;52.16
7532;BME280;3807;49.030;8.714;2023-05-20T10:42:40;99222.44;;;22.02;51.42
7532;BME280;3807;49.030;8.714;2023-05-20T10:45:06;99217.28;;;22.23;51.60
7532;BME280;3807;49.030;8.714;2023-05-20T10:47:33;99220.03;;;22.21;52.15
7532;BME280;3807;49.030;8.714;2023-05-20T10:49:58;99224.31;;;22.32;51.26
7532;BME280;3807;49.030;8.714;2023-05-20T10:52:26;99214.53;;;22.45;50.63
7532;BME280;3807;49.030;8.714;2023-05-20T10:54:59;99213.44;;;22.48;51.29
7532;BME280;3807;49.030;8.714;2023-05-20T10:57:26;99208.75;;;22.72;50.79
7532;BME280;3807;49.030;8.714;2023-05-20T10:59:51;99212.69;;;22.57;51.04
7532;BME280;3807;49.030;8.714;2023-05-20T11:02:18;99223.87;;;22.57;50.26
7532;BME280;3807;49.030;8.714;2023-05-20T11:04:44;99226.53;;;22.67;50.47
7532;BME280;3807;49.030;8.714;2023-05-20T11:07:11;99215.50;;;22.85;50.17
7532;BME280;3807;49.030;8.714;2023-05-20T11:09:37;99207.78;;;22.94;49.45
7532;BME280;3807;49.030;8.714;2023-05-20T11:12:02;99202.53;;;22.85;50.17
7532;BME280;3807;49.030;8.714;2023-05-20T11:14:28;99201.41;;;22.87;50.30
7532;BME280;3807;49.030;8.714;2023-05-20T11:16:57;99196.88;;;23.10;49.30
7532;BME280;3807;49.030;8.714;2023-05-20T11:19:23;99185.13;;;23.25;49.43
7532;BME280;3807;49.030;8.714;2023-05-20T11:21:49;99190.19;;;23.27;49.59
7532;BME280;3807;49.030;8.714;2023-05-20T11:24:23;99188.16;;;23.30;48.75
7532;BME280;3807;49.030;8.714;2023-05-20T11:26:50;99173.09;;;23.34;48.77
7532;BME280;3807;49.030;8.714;2023-05-20T11:29:17;99175.69;;;23.24;49.15
7532;BME280;3807;49.030;8.714;2023-05-20T11:31:44;99172.28;;;23.43;48.39
7532;BME280;3807;49.030;8.714;2023-05-20T11:34:09;99164.63;;;23.51;48.72
7532;BME280;3807;49.030;8.714;2023-05-20T11:36:42;99173.66;;;23.57;48.62
7532;BME280;3807;49.030;8.714;2023-05-20T11:39:11;99166.66;;;23.96;47.19
7532;BME280;3807;49.030;8.714;2023-05-20T11:41:37;99157.41;;;24.12;47.05
7532;BME280;3807;49.030;8.714;2023-05-20T11:44:03;99169.38;;;23.95;47.54
7532;BME280;3807;49.030;8.714;2023-05-20T11:46:29;99160.28;;;24.09;46.98
7532;BME280;3807;49.030;8.714;2023-05-20T11:48:55;99158.38;;;24.11;46.28
7532;BME280;3807;49.030;8.714;2023-05-20T11:51:23;99170.22;;;24.33;47.30
7532;BME280;3807;49.030;8.714;2023-05-20T11:53:48;99167.22;;;24.37;47.51
7532;BME280;3807;49.030;8.714;2023-05-20T11:56:14;99158.38;;;24.20;47.04
7532;BME280;3807;49.030;8.714;2023-05-20T11:58:42;99156.34;;;24.52;46.37
7532;BME280;3807;49.030;8.714;2023-05-20T12:01:08;99154.28;;;24.55;46.28
7532;BME280;3807;49.030;8.714;2023-05-20T12:03:35;99154.28;;;24.55;45.64
7532;BME280;3807;49.030;8.714;2023-05-20T12:06:01;99156.63;;;24.48;46.34
7532;BME280;3807;49.030;8.714;2023-05-20T12:08:27;99154.41;;;24.54;45.83
7532;BME280;3807;49.030;8.714;2023-05-20T12:10:52;99155.66;;;24.77;45.71
7532;BME280;3807;49.030;8.714;2023-05-20T12:13:17;99154.97;;;24.75;45.28
7532;BME280;3807;49.030;8.714;2023-05-20T12:15:43;99155.31;;;24.90;45.38
7532;BME280;3807;49.030;8.714;2023-05-20T12:18:08;99154.16;;;24.75;46.44
7532;BME280;3807;49.030;8.714;2023-05-20T12:20:34;99142.72;;;25.03;45.94
7532;BME280;3807;49.030;8.714;2023-05-20T12:23:01;99148.06;;;25.29;44.87
7532;BME280;3807;49.030;8.714;2023-05-20T12:25:26;99140.31;;;25.19;45.64
7532;BME280;3807;49.030;8.714;2023-05-20T12:27:52;99131.38;;;25.22;45.40
7532;BME280;3807;49.030;8.714;2023-05-20T12:30:19;99133.66;;;25.07;44.86
7532;BME280;3807;49.030;8.714;2023-05-20T12:32:46;99135.03;;;25.29;45.58
7532;BME280;3807;49.030;8.714;2023-05-20T12:35:12;99139.78;;;25.34;44.60
7532;BME280;3807;49.030;8.714;2023-05-20T12:37:38;99132.44;;;25.55;43.84
7532;BME280;3807;49.030;8.714;2023-05-20T12:40:06;99126.50;;;25.63;43.95
7532;BME280;3807;49.030;8.714;2023-05-20T12:42:39;99121.78;;;25.23;44.92
7532;BME280;3807;49.030;8.714;2023-05-20T12:45:06;99130.59;;;25.48;44.08
7532;BME280;3807;49.030;8.714;2023-05-20T12:47:32;99129.94;;;25.28;43.57
7532;BME280;3807;49.030;8.714;2023-05-20T12:49:58;99126.63;;;25.61;43.80
7532;BME280;3807;49.030;8.714;2023-05-20T12:52:25;99130.03;;;25.80;45.03
7532;BME280;3807;49.030;8.714;2023-05-20T12:54:52;99130.44;;;25.93;43.26
7532;BME280;3807;49.030;8.714;2023-05-20T12:57:17;99137.47;;;25.93;44.58
7532;BME280;3807;49.030;8.714;2023-05-20T12:59:43;99133.63;;;26.05;43.65
7532;BME280;3807;49.030;8.714;2023-05-20T13:02:09;99132.44;;;25.99;43.63
7532;BME280;3807;49.030;8.714;2023-05-20T13:04:34;99128.00;;;25.92;43.78
7532;BME280;3807;49.030;8.714;2023-05-20T13:07:00;99125.97;;;26.11;43.99
7532;BME280;3807;49.030;8.714;2023-05-20T13:09:25;99131.47;;;26.00;44.00
7532;BME280;3807;49.030;8.714;2023-05-20T13:11:51;99126.22;;;25.92;43.45
7532;BME280;3807;49.030;8.714;2023-05-20T13:14:16;99118.88;;;25.87;44.55
7532;BME280;3807;49.030;8.714;2023-05-20T13:16:41;99115.81;;;26.00;43.62
7532;BME280;3807;49.030;8.714;2023-05-20T13:19:07;99113.59;;;26.13;43.05
7532;BME280;3807;49.030;8.714;2023-05-20T13:21:32;99114.28;;;26.16;43.78
7532;BME280;3807;49.030;8.714;2023-05-20T13:23:58;99117.97;;;26.05;43.88
7532;BME280;3807;49.030;8.714;2023-05-20T13:26:25;99112.50;;;26.24;43.92